createdAt,value
2017-10-25T00:00:18.362Z,96.6
2017-10-25T00:01:19.757Z,96.5
2017-10-25T00:02:21.158Z,96.3
2017-10-25T00:03:22.553Z,96.5
2017-10-25T00:04:23.950Z,96.4
2017-10-25T00:05:25.351Z,96.5
2017-10-25T00:06:26.751Z,96.2
2017-10-25T00:07:28.150Z,95.9
2017-10-25T00:08:29.551Z,96.1
2017-10-25T00:09:30.952Z,95.7
2017-10-25T00:10:32.350Z,96.1
2017-10-25T00:11:33.898Z,95.7
2017-10-25T00:12:35.434Z,95.4
2017-10-25T00:13:36.894Z,95.7
2017-10-25T00:14:38.296Z,95.8
2017-10-25T00:15:39.699Z,95.8
2017-10-25T00:16:41.101Z,95.6
2017-10-25T00:17:42.500Z,95.8
2017-10-25T00:18:43.902Z,95.5
2017-10-25T00:19:45.297Z,95.7
2017-10-25T00:20:46.698Z,95.7
2017-10-25T00:21:48.092Z,95.4
2017-10-25T00:22:49.493Z,95.6
2017-10-25T00:23:50.896Z,95.4
2017-10-25T00:24:52.291Z,94.9
2017-10-25T00:25:53.689Z,94.7
2017-10-25T00:26:55.091Z,95.0
2017-10-25T00:27:56.491Z,94.8
2017-10-25T00:28:57.890Z,94.5
2017-10-25T00:29:59.290Z,94.6
2017-10-25T00:31:00.697Z,94.6
2017-10-25T00:32:02.096Z,94.8
2017-10-25T00:33:03.493Z,95.0
2017-10-25T00:34:04.897Z,94.7
2017-10-25T00:35:06.296Z,94.9
2017-10-25T00:36:07.696Z,94.9
2017-10-25T00:37:09.097Z,95.0
2017-10-25T00:38:10.501Z,95.1
2017-10-25T00:39:11.897Z,95.2
2017-10-25T00:40:13.300Z,95.2
2017-10-25T00:41:14.698Z,95.2
2017-10-25T00:42:16.098Z,94.7
2017-10-25T00:43:17.495Z,94.9
2017-10-25T00:44:18.896Z,94.7
2017-10-25T00:45:20.296Z,94.8
2017-10-25T00:46:21.695Z,94.7
2017-10-25T00:47:23.096Z,95.0
2017-10-25T00:48:24.495Z,94.6
2017-10-25T00:49:25.893Z,94.9
2017-10-25T00:50:27.294Z,94.7
2017-10-25T00:51:28.695Z,95.0
2017-10-25T00:52:30.099Z,95.1
2017-10-25T00:53:31.499Z,95.5
2017-10-25T00:54:32.895Z,95.2
2017-10-25T00:55:34.305Z,94.8
2017-10-25T00:56:35.693Z,95.2
2017-10-25T00:57:37.093Z,95.0
2017-10-25T00:58:38.499Z,95.4
2017-10-25T00:59:39.903Z,95.6
2017-10-25T01:00:41.301Z,95.6
2017-10-25T01:01:42.694Z,95.7
2017-10-25T01:02:44.094Z,95.5
2017-10-25T01:03:45.497Z,95.5
2017-10-25T01:04:46.895Z,95.5
2017-10-25T01:05:48.294Z,95.6
2017-10-25T01:06:49.698Z,95.4
2017-10-25T01:07:51.099Z,95.5
2017-10-25T01:08:52.496Z,95.8
2017-10-25T01:09:53.895Z,95.8
2017-10-25T01:10:55.293Z,95.1
2017-10-25T01:11:56.695Z,95.3
2017-10-25T01:12:58.097Z,95.1
2017-10-25T01:13:59.505Z,95.3
2017-10-25T01:15:00.909Z,95.2
2017-10-25T01:16:02.303Z,95.9
2017-10-25T01:17:03.704Z,95.9
2017-10-25T01:18:05.100Z,95.5
2017-10-25T01:19:06.501Z,95.1
2017-10-25T01:20:07.950Z,95.5
2017-10-25T01:21:09.352Z,95.1
2017-10-25T01:22:10.749Z,95.8
2017-10-25T01:23:12.148Z,95.6
2017-10-25T01:24:13.547Z,95.3
2017-10-25T01:25:14.950Z,95.5
2017-10-25T01:26:16.355Z,95.6
2017-10-25T01:27:17.792Z,95.1
2017-10-25T01:28:19.194Z,95.9
2017-10-25T01:29:20.591Z,95.2
2017-10-25T01:30:21.988Z,95.8
2017-10-25T01:31:23.387Z,95.7
2017-10-25T01:32:24.787Z,95.5
2017-10-25T01:33:26.190Z,95.2
2017-10-25T01:34:27.590Z,95.1
2017-10-25T01:35:28.990Z,95.0
2017-10-25T01:36:30.388Z,95.2
2017-10-25T01:37:31.787Z,95.9
2017-10-25T01:38:33.191Z,95.5
2017-10-25T01:39:34.589Z,95.4
2017-10-25T01:40:35.988Z,95.2
2017-10-25T01:41:37.388Z,95.4
2017-10-25T01:42:38.788Z,95.8
2017-10-25T01:43:40.187Z,95.6
2017-10-25T01:44:41.584Z,95.4
2017-10-25T01:45:42.984Z,95.6
2017-10-25T01:46:44.388Z,95.5
2017-10-25T01:47:45.787Z,95.9
2017-10-25T01:48:47.186Z,95.0
2017-10-25T01:49:48.588Z,95.8
2017-10-25T01:50:49.986Z,95.2
2017-10-25T01:51:51.383Z,95.1
2017-10-25T01:52:52.785Z,95.4
2017-10-25T01:53:54.183Z,95.3
2017-10-25T01:54:55.580Z,95.4
2017-10-25T01:55:56.981Z,95.5
2017-10-25T01:56:58.378Z,95.5
2017-10-25T01:57:59.778Z,95.3
2017-10-25T01:59:01.188Z,95.3
2017-10-25T02:00:02.577Z,95.8
2017-10-25T02:01:03.977Z,95.6
2017-10-25T02:02:05.376Z,95.8
2017-10-25T02:03:06.777Z,95.8
2017-10-25T02:04:08.179Z,95.8
2017-10-25T02:05:09.577Z,95.8
2017-10-25T02:06:10.977Z,95.8
2017-10-25T02:07:12.374Z,95.8
2017-10-25T02:08:13.773Z,95.2
2017-10-25T02:09:15.175Z,95.6
2017-10-25T02:10:16.576Z,95.8
2017-10-25T02:11:17.976Z,95.8
2017-10-25T02:12:19.371Z,95.7
2017-10-25T02:13:20.773Z,95.3
2017-10-25T02:14:22.172Z,95.6
2017-10-25T02:15:23.571Z,95.6
2017-10-25T02:16:24.974Z,95.4
2017-10-25T02:17:26.379Z,95.6
2017-10-25T02:18:27.782Z,95.8
2017-10-25T02:19:29.180Z,95.7
2017-10-25T02:20:30.578Z,95.9
2017-10-25T02:21:31.975Z,95.1
2017-10-25T02:22:33.375Z,95.3
2017-10-25T02:23:34.779Z,95.2
2017-10-25T02:24:36.177Z,95.4
2017-10-25T02:25:37.583Z,95.2
2017-10-25T02:26:38.980Z,95.4
2017-10-25T02:27:40.382Z,95.5
2017-10-25T02:28:41.780Z,95.4
2017-10-25T02:29:43.184Z,95.6
2017-10-25T02:30:44.584Z,95.2
2017-10-25T02:31:45.983Z,95.2
2017-10-25T02:32:47.386Z,95.6
2017-10-25T02:33:48.783Z,95.7
2017-10-25T02:34:50.185Z,95.5
2017-10-25T02:35:51.581Z,95.3
2017-10-25T02:36:52.980Z,95.4
2017-10-25T02:37:54.383Z,95.6
2017-10-25T02:38:55.782Z,95.4
2017-10-25T02:39:57.184Z,94.9
2017-10-25T02:40:58.589Z,95.6
2017-10-25T02:41:59.983Z,94.7
2017-10-25T02:43:01.379Z,95.2
2017-10-25T02:44:02.781Z,95.1
2017-10-25T02:45:04.184Z,95.4
2017-10-25T02:46:05.578Z,94.7
2017-10-25T02:47:06.982Z,94.8
2017-10-25T02:48:08.379Z,94.5
2017-10-25T02:49:09.777Z,94.7
2017-10-25T02:50:11.174Z,94.8
2017-10-25T02:51:12.573Z,94.5
2017-10-25T02:52:13.974Z,94.8
2017-10-25T02:53:15.374Z,94.7
2017-10-25T02:54:16.772Z,94.9
2017-10-25T02:55:18.174Z,94.7
2017-10-25T02:56:19.575Z,94.7
2017-10-25T02:57:20.975Z,94.5
2017-10-25T02:58:22.379Z,94.5
2017-10-25T02:59:23.826Z,93.9
2017-10-25T03:00:25.226Z,94.0
2017-10-25T03:01:26.624Z,94.1
2017-10-25T03:02:28.025Z,94.2
2017-10-25T03:03:29.425Z,94.0
2017-10-25T03:04:30.824Z,94.2
2017-10-25T03:05:32.226Z,94.2
2017-10-25T03:06:33.624Z,94.0
2017-10-25T03:07:35.025Z,93.9
2017-10-25T03:08:36.426Z,94.1
2017-10-25T03:09:37.823Z,94.2
2017-10-25T03:10:39.222Z,93.8
2017-10-25T03:11:40.623Z,94.1
2017-10-25T03:12:42.021Z,94.4
2017-10-25T03:13:43.427Z,93.7
2017-10-25T03:14:44.827Z,93.7
2017-10-25T03:15:46.230Z,93.6
2017-10-25T03:16:47.628Z,93.9
2017-10-25T03:17:49.027Z,94.0
2017-10-25T03:18:50.422Z,94.1
2017-10-25T03:19:51.826Z,93.9
2017-10-25T03:20:53.225Z,93.6
2017-10-25T03:21:54.623Z,93.8
2017-10-25T03:22:56.025Z,93.7
2017-10-25T03:23:57.425Z,93.6
2017-10-25T03:24:58.823Z,93.4
2017-10-25T03:26:00.223Z,93.7
2017-10-25T03:27:01.629Z,93.6
2017-10-25T03:28:03.021Z,93.6
2017-10-25T03:29:04.425Z,93.6
2017-10-25T03:30:05.826Z,93.5
2017-10-25T03:31:07.237Z,93.4
2017-10-25T03:32:08.622Z,94.0
2017-10-25T03:33:10.020Z,93.8
2017-10-25T03:34:11.419Z,93.9
2017-10-25T03:35:12.819Z,93.7
2017-10-25T03:36:14.221Z,93.7
2017-10-25T03:37:15.624Z,93.9
2017-10-25T03:38:17.020Z,93.9
2017-10-25T03:39:18.421Z,94.0
2017-10-25T03:40:19.821Z,93.6
2017-10-25T03:41:21.218Z,93.3
2017-10-25T03:42:22.619Z,94.3
2017-10-25T03:43:24.019Z,94.1
2017-10-25T03:44:25.420Z,94.5
2017-10-25T03:45:26.817Z,94.2
2017-10-25T03:46:28.216Z,93.8
2017-10-25T03:47:29.623Z,93.9
2017-10-25T03:48:31.027Z,94.2
2017-10-25T03:49:32.434Z,94.2
2017-10-25T03:50:33.836Z,94.3
2017-10-25T03:51:35.236Z,94.2
2017-10-25T03:52:36.636Z,93.9
2017-10-25T03:53:38.036Z,94.2
2017-10-25T03:54:39.435Z,94.0
2017-10-25T03:55:40.839Z,94.2
2017-10-25T03:56:42.242Z,94.0
2017-10-25T03:57:43.641Z,94.0
2017-10-25T03:58:45.040Z,94.0
2017-10-25T03:59:46.436Z,93.9
2017-10-25T04:00:47.838Z,94.0
2017-10-25T04:01:49.239Z,94.0
2017-10-25T04:02:50.644Z,94.7
2017-10-25T04:03:52.043Z,94.7
2017-10-25T04:04:53.443Z,94.7
2017-10-25T04:05:54.843Z,94.8
2017-10-25T04:06:56.241Z,94.8
2017-10-25T04:07:57.641Z,94.8
2017-10-25T04:08:59.041Z,94.6
2017-10-25T04:10:00.437Z,94.8
2017-10-25T04:11:01.837Z,94.5
2017-10-25T04:12:03.243Z,94.7
2017-10-25T04:13:04.639Z,94.8
2017-10-25T04:14:06.039Z,94.5
2017-10-25T04:15:07.435Z,95.1
2017-10-25T04:16:08.836Z,94.8
2017-10-25T04:17:10.236Z,93.9
2017-10-25T04:18:11.636Z,94.1
2017-10-25T04:19:13.035Z,94.1
2017-10-25T04:20:14.436Z,94.1
2017-10-25T04:21:15.834Z,93.3
2017-10-25T04:22:17.235Z,94.5
2017-10-25T04:23:18.630Z,93.4
2017-10-25T04:24:20.030Z,94.0
2017-10-25T04:25:21.431Z,93.9
2017-10-25T04:26:22.832Z,93.6
2017-10-25T04:27:24.234Z,93.8
2017-10-25T04:28:25.631Z,93.6
2017-10-25T04:29:27.031Z,94.0
2017-10-25T04:30:28.434Z,94.1
2017-10-25T04:31:29.833Z,93.6
2017-10-25T04:32:31.233Z,93.6
2017-10-25T04:33:32.641Z,93.9
2017-10-25T04:34:34.038Z,93.6
2017-10-25T04:35:35.433Z,93.6
2017-10-25T04:36:36.834Z,93.5
2017-10-25T04:37:38.230Z,93.6
2017-10-25T04:38:39.672Z,94.2
2017-10-25T04:39:41.073Z,94.1
2017-10-25T04:40:42.660Z,94.1
2017-10-25T04:41:44.059Z,93.9
2017-10-25T04:42:45.462Z,94.3
2017-10-25T04:43:46.863Z,94.1
2017-10-25T04:44:48.263Z,94.2
2017-10-25T04:45:49.662Z,94.2
2017-10-25T04:46:51.067Z,94.1
2017-10-25T04:47:52.585Z,93.7
2017-10-25T04:48:53.999Z,94.0
2017-10-25T04:49:55.390Z,94.0
2017-10-25T04:50:56.786Z,95.2
2017-10-25T04:51:58.185Z,95.0
2017-10-25T04:52:59.590Z,95.1
2017-10-25T04:54:00.986Z,94.8
2017-10-25T04:55:02.395Z,94.8
2017-10-25T04:56:03.791Z,94.7
2017-10-25T04:57:05.192Z,94.7
2017-10-25T04:58:06.597Z,94.4
2017-10-25T04:59:07.992Z,94.7
2017-10-25T05:00:09.392Z,94.4
2017-10-25T05:01:10.791Z,94.5
2017-10-25T05:02:12.191Z,94.6
2017-10-25T05:03:13.592Z,94.5
2017-10-25T05:04:14.991Z,94.5
2017-10-25T05:05:16.384Z,94.5
2017-10-25T05:06:17.782Z,94.4
2017-10-25T05:07:19.182Z,94.5
2017-10-25T05:08:20.591Z,94.4
2017-10-25T05:09:21.992Z,94.6
2017-10-25T05:10:23.391Z,94.5
2017-10-25T05:11:24.799Z,94.7
2017-10-25T05:12:26.210Z,94.5
2017-10-25T05:13:27.604Z,94.5
2017-10-25T05:14:29.000Z,94.7
2017-10-25T05:15:30.404Z,94.5
2017-10-25T05:16:31.804Z,93.8
2017-10-25T05:17:33.208Z,94.2
2017-10-25T05:18:34.606Z,94.1
2017-10-25T05:19:36.002Z,94.5
2017-10-25T05:20:37.400Z,94.4
2017-10-25T05:21:38.801Z,93.7
2017-10-25T05:22:40.200Z,94.1
2017-10-25T05:23:41.600Z,94.1
2017-10-25T05:24:43.004Z,94.3
2017-10-25T05:25:44.401Z,94.2
2017-10-25T05:26:45.799Z,94.0
2017-10-25T05:27:47.391Z,93.8
2017-10-25T05:28:48.795Z,94.1
2017-10-25T05:29:50.193Z,93.8
2017-10-25T05:30:51.595Z,94.3
2017-10-25T05:31:52.997Z,94.9
2017-10-25T05:32:54.394Z,94.5
2017-10-25T05:33:55.795Z,94.6
2017-10-25T05:34:57.193Z,94.5
2017-10-25T05:35:58.594Z,94.5
2017-10-25T05:36:59.996Z,94.5
2017-10-25T05:38:01.396Z,94.7
2017-10-25T05:39:03.149Z,94.5
2017-10-25T05:40:04.543Z,94.6
2017-10-25T05:41:05.941Z,94.8
2017-10-25T05:42:08.468Z,94.5
2017-10-25T05:43:09.751Z,94.5
2017-10-25T05:44:11.149Z,95.1
2017-10-25T05:45:12.550Z,94.5
2017-10-25T05:46:13.948Z,94.9
2017-10-25T05:47:15.346Z,94.7
2017-10-25T05:48:16.747Z,95.3
2017-10-25T05:49:18.144Z,95.0
2017-10-25T05:50:19.547Z,94.9
2017-10-25T05:51:20.949Z,94.6
2017-10-25T05:52:22.354Z,94.5
2017-10-25T05:53:23.750Z,94.8
2017-10-25T05:54:25.150Z,95.3
2017-10-25T05:55:26.556Z,95.3
2017-10-25T05:56:27.954Z,95.3
2017-10-25T05:57:29.353Z,95.5
2017-10-25T05:58:30.754Z,95.7
2017-10-25T05:59:32.154Z,95.5
2017-10-25T06:00:33.561Z,95.4
2017-10-25T06:01:34.959Z,95.4
2017-10-25T06:02:36.359Z,95.4
2017-10-25T06:03:37.758Z,95.5
2017-10-25T06:04:39.159Z,95.5
2017-10-25T06:05:40.563Z,95.5
2017-10-25T06:06:41.963Z,95.6
2017-10-25T06:07:43.369Z,95.4
2017-10-25T06:08:44.764Z,95.5
2017-10-25T06:09:46.159Z,95.3
2017-10-25T06:10:47.561Z,95.5
2017-10-25T06:11:48.965Z,95.2
2017-10-25T06:12:50.367Z,95.7
2017-10-25T06:13:51.800Z,95.6
2017-10-25T06:14:53.207Z,95.0
2017-10-25T06:15:54.607Z,95.7
2017-10-25T06:16:56.005Z,95.3
2017-10-25T06:17:57.403Z,95.2
2017-10-25T06:18:58.805Z,95.3
2017-10-25T06:20:00.214Z,95.2
2017-10-25T06:21:01.610Z,95.3
2017-10-25T06:22:03.012Z,95.4
2017-10-25T06:23:04.408Z,95.4
2017-10-25T06:24:05.809Z,95.5
2017-10-25T06:25:07.209Z,95.3
2017-10-25T06:26:08.610Z,95.3
2017-10-25T06:27:10.012Z,95.3
2017-10-25T06:28:11.413Z,95.3
2017-10-25T06:29:12.814Z,95.3
2017-10-25T06:30:14.209Z,95.6
2017-10-25T06:31:15.611Z,95.5
2017-10-25T06:32:17.011Z,95.6
2017-10-25T06:33:18.420Z,95.5
2017-10-25T06:34:19.818Z,95.7
2017-10-25T06:35:21.221Z,95.6
2017-10-25T06:36:22.627Z,95.6
2017-10-25T06:37:24.024Z,95.6
2017-10-25T06:38:25.424Z,95.6
2017-10-25T06:39:26.822Z,95.6
2017-10-25T06:40:28.224Z,95.5
2017-10-25T06:41:29.627Z,95.6
2017-10-25T06:42:31.039Z,95.6
2017-10-25T06:43:32.437Z,95.6
2017-10-25T06:44:33.837Z,95.0
2017-10-25T06:45:35.253Z,95.1
2017-10-25T06:46:36.638Z,95.7
2017-10-25T06:47:38.041Z,95.0
2017-10-25T06:48:39.451Z,95.3
2017-10-25T06:49:40.846Z,95.2
2017-10-25T06:50:42.253Z,95.3
2017-10-25T06:51:43.655Z,95.2
2017-10-25T06:52:45.056Z,95.6
2017-10-25T06:53:46.460Z,95.3
2017-10-25T06:54:47.859Z,95.1
2017-10-25T06:57:58.644Z,94.6
2017-10-25T06:59:00.117Z,94.6
2017-10-25T07:00:01.508Z,94.5
2017-10-25T07:01:02.898Z,94.7
2017-10-25T07:02:04.293Z,94.5
2017-10-25T07:03:05.688Z,94.8
2017-10-25T07:04:07.094Z,94.4
2017-10-25T07:05:08.491Z,94.5
2017-10-25T07:06:09.884Z,94.5
2017-10-25T07:07:11.280Z,94.6
2017-10-25T07:08:12.670Z,94.5
2017-10-25T07:09:54.578Z,94.6
2017-10-25T07:10:55.959Z,94.9
2017-10-25T07:12:17.460Z,93.8
2017-10-25T07:13:18.852Z,93.7
2017-10-25T07:14:40.388Z,93.9
2017-10-25T07:15:41.780Z,94.4
2017-10-25T07:17:03.285Z,93.7
2017-10-25T07:18:04.671Z,93.3
2017-10-25T07:19:26.202Z,93.7
2017-10-25T07:20:27.596Z,93.3
2017-10-25T07:21:50.087Z,93.5
2017-10-25T07:22:51.480Z,93.6
2017-10-25T07:24:13.006Z,93.3
2017-10-25T07:25:14.396Z,93.1
2017-10-25T07:26:36.883Z,93.1
2017-10-25T07:27:38.278Z,92.4
2017-10-25T07:29:00.768Z,93.1
2017-10-25T07:30:02.211Z,92.8
2017-10-25T07:31:24.733Z,93.1
2017-10-25T07:32:26.136Z,92.4
2017-10-25T07:33:47.639Z,92.0
2017-10-25T07:34:49.039Z,92.4
2017-10-25T07:36:10.562Z,92.2
2017-10-25T07:37:11.953Z,92.4
2017-10-25T07:38:33.458Z,92.0
2017-10-25T07:39:34.852Z,91.6
2017-10-25T07:40:56.499Z,91.4
2017-10-25T07:41:57.889Z,91.2
2017-10-25T07:43:19.387Z,89.9
2017-10-25T07:44:20.778Z,90.2
2017-10-25T07:45:42.321Z,90.1
2017-10-25T07:46:43.714Z,90.2
2017-10-25T07:48:06.206Z,89.8
2017-10-25T07:49:07.599Z,89.2
2017-10-25T07:50:30.096Z,89.9
2017-10-25T07:51:31.490Z,89.3
2017-10-25T07:52:53.014Z,89.5
2017-10-25T07:53:54.408Z,89.4
2017-10-25T07:55:16.907Z,89.2
2017-10-25T07:56:18.304Z,88.2
2017-10-25T07:57:19.699Z,88.4
2017-10-25T07:58:21.113Z,88.8
2017-10-25T07:59:22.507Z,88.7
2017-10-25T08:00:23.905Z,88.0
2017-10-25T08:01:25.308Z,88.2
2017-10-25T08:02:26.696Z,88.4
2017-10-25T08:03:28.096Z,88.1
2017-10-25T08:04:29.489Z,87.6
2017-10-25T08:05:30.883Z,87.7
2017-10-25T08:06:32.281Z,87.5
2017-10-25T08:07:33.674Z,88.2
2017-10-25T08:08:35.069Z,88.4
2017-10-25T08:09:36.466Z,87.5
2017-10-25T08:10:37.858Z,87.9
2017-10-25T08:11:39.253Z,87.7
2017-10-25T08:12:40.648Z,87.6
2017-10-25T08:13:42.041Z,87.5
2017-10-25T08:14:43.436Z,87.8
2017-10-25T08:15:44.832Z,88.0
2017-10-25T08:16:46.230Z,87.6
2017-10-25T08:17:47.628Z,88.4
2017-10-25T08:18:49.025Z,87.3
2017-10-25T08:19:50.423Z,87.7
2017-10-25T08:20:51.819Z,87.7
2017-10-25T08:21:53.214Z,87.9
2017-10-25T08:22:54.615Z,87.9
2017-10-25T08:23:56.012Z,87.4
2017-10-25T08:24:57.407Z,87.2
2017-10-25T08:25:58.802Z,87.3
2017-10-25T08:27:00.198Z,87.8
2017-10-25T08:28:01.597Z,87.0
2017-10-25T08:29:02.995Z,87.3
2017-10-25T08:30:04.396Z,87.3
2017-10-25T08:31:05.799Z,87.1
2017-10-25T08:32:07.190Z,87.3
2017-10-25T08:33:08.584Z,86.6
2017-10-25T08:34:09.975Z,86.3
2017-10-25T08:35:11.376Z,87.1
2017-10-25T08:36:12.814Z,86.2
2017-10-25T08:37:14.172Z,85.9
2017-10-25T08:38:15.570Z,86.5
2017-10-25T08:39:16.963Z,86.0
2017-10-25T08:40:18.363Z,85.6
2017-10-25T08:41:19.756Z,85.9
2017-10-25T08:42:21.153Z,85.4
2017-10-25T08:43:22.553Z,84.9
2017-10-25T08:44:23.948Z,85.2
2017-10-25T08:45:25.346Z,84.8
2017-10-25T08:46:26.738Z,84.8
2017-10-25T08:47:28.136Z,85.1
2017-10-25T08:48:29.546Z,84.8
2017-10-25T08:49:30.925Z,85.0
2017-10-25T08:50:32.323Z,84.7
2017-10-25T08:51:33.724Z,85.6
2017-10-25T08:52:35.118Z,84.6
2017-10-25T08:53:36.512Z,84.8
2017-10-25T08:54:37.912Z,84.6
2017-10-25T08:55:39.306Z,84.9
2017-10-25T08:56:40.705Z,84.7
2017-10-25T08:57:42.103Z,84.5
2017-10-25T08:58:43.503Z,83.9
2017-10-25T08:59:44.906Z,84.3
2017-10-25T09:00:46.295Z,84.2
2017-10-25T09:01:47.691Z,84.3
2017-10-25T09:02:49.087Z,84.6
2017-10-25T09:03:50.481Z,84.4
2017-10-25T09:04:51.877Z,83.9
2017-10-25T09:05:53.276Z,83.9
2017-10-25T09:06:54.675Z,84.3
2017-10-25T09:07:56.070Z,84.4
2017-10-25T09:08:57.466Z,84.8
2017-10-25T09:09:58.863Z,84.7
2017-10-25T09:11:00.263Z,84.2
2017-10-25T09:12:01.656Z,84.5
2017-10-25T09:13:03.053Z,84.7
2017-10-25T09:14:04.453Z,84.7
2017-10-25T09:15:05.847Z,84.8
2017-10-25T09:16:07.242Z,85.3
2017-10-25T09:17:08.651Z,85.4
2017-10-25T09:18:10.039Z,84.2
2017-10-25T09:19:11.434Z,84.6
2017-10-25T09:20:12.836Z,84.4
2017-10-25T09:21:14.267Z,85.0
2017-10-25T09:22:15.660Z,84.5
2017-10-25T09:23:17.053Z,84.5
2017-10-25T09:24:18.451Z,84.9
2017-10-25T09:25:19.848Z,84.6
2017-10-25T09:26:21.246Z,83.9
2017-10-25T09:27:22.645Z,83.2
2017-10-25T09:28:24.046Z,83.4
2017-10-25T09:29:25.446Z,82.9
2017-10-25T09:30:26.843Z,83.3
2017-10-25T09:31:28.240Z,82.8
2017-10-25T09:32:29.636Z,83.1
2017-10-25T09:33:31.036Z,83.3
2017-10-25T09:34:32.436Z,83.3
2017-10-25T09:35:33.837Z,82.8
2017-10-25T09:36:35.231Z,82.8
2017-10-25T09:37:36.628Z,82.4
2017-10-25T09:38:38.027Z,82.6
2017-10-25T09:39:39.416Z,82.9
2017-10-25T09:40:40.818Z,81.9
2017-10-25T09:41:42.220Z,82.2
2017-10-25T09:42:43.614Z,82.4
2017-10-25T09:43:45.007Z,82.2
2017-10-25T09:44:46.406Z,82.1
2017-10-25T09:45:47.805Z,82.3
2017-10-25T09:46:49.199Z,81.2
2017-10-25T09:47:50.594Z,81.3
2017-10-25T09:48:51.999Z,82.4
2017-10-25T09:49:53.401Z,81.9
2017-10-25T09:50:54.794Z,80.9
2017-10-25T09:51:56.193Z,79.8
2017-10-25T09:52:57.597Z,79.6
2017-10-25T09:53:58.997Z,79.5
2017-10-25T09:55:00.398Z,79.9
2017-10-25T09:56:01.797Z,78.4
2017-10-25T09:57:03.196Z,79.2
2017-10-25T09:58:04.597Z,78.4
2017-10-25T09:59:05.995Z,78.1
2017-10-25T10:00:07.389Z,76.2
2017-10-25T10:01:08.790Z,76.3
2017-10-25T10:02:10.194Z,76.7
2017-10-25T10:03:11.597Z,77.1
2017-10-25T10:04:13.000Z,76.6
2017-10-25T10:05:14.393Z,76.8
2017-10-25T10:06:15.792Z,77.2
2017-10-25T10:07:17.189Z,76.5
2017-10-25T10:08:18.588Z,76.9
2017-10-25T10:09:19.986Z,76.7
2017-10-25T10:10:21.384Z,76.9
2017-10-25T10:11:22.787Z,75.0
2017-10-25T10:12:24.183Z,74.9
2017-10-25T10:13:25.618Z,75.5
2017-10-25T10:14:27.016Z,75.1
2017-10-25T10:15:28.418Z,74.7
2017-10-25T10:16:29.817Z,74.5
2017-10-25T10:17:31.223Z,74.5
2017-10-25T10:18:32.627Z,73.2
2017-10-25T10:19:34.029Z,72.6
2017-10-25T10:20:35.427Z,71.9
2017-10-25T10:21:36.828Z,72.1
2017-10-25T10:22:38.237Z,71.4
2017-10-25T10:23:39.637Z,71.2
2017-10-25T10:24:41.039Z,70.9
2017-10-25T10:25:42.450Z,70.4
2017-10-25T10:26:43.848Z,69.6
2017-10-25T10:27:45.248Z,68.1
2017-10-25T10:28:46.649Z,67.0
2017-10-25T10:29:48.057Z,66.1
2017-10-25T10:30:49.456Z,66.0
2017-10-25T10:31:50.860Z,65.3
2017-10-25T10:32:52.261Z,64.3
2017-10-25T10:33:53.662Z,63.8
2017-10-25T10:34:55.065Z,65.3
2017-10-25T10:35:56.467Z,64.5
2017-10-25T10:36:57.868Z,64.1
2017-10-25T10:37:59.266Z,63.5
2017-10-25T10:39:00.670Z,62.7
2017-10-25T10:40:02.089Z,65.8
2017-10-25T10:41:03.481Z,64.8
2017-10-25T10:42:04.883Z,63.6
2017-10-25T10:43:06.286Z,64.2
2017-10-25T10:44:07.686Z,65.5
2017-10-25T10:45:09.085Z,66.7
2017-10-25T10:46:10.490Z,66.7
2017-10-25T10:47:11.896Z,66.1
2017-10-25T10:48:13.300Z,64.3
2017-10-25T10:49:14.707Z,65.0
2017-10-25T10:50:16.109Z,63.3
2017-10-25T10:51:17.513Z,61.5
2017-10-25T10:52:18.915Z,61.6
2017-10-25T10:53:20.326Z,64.3
2017-10-25T10:54:21.723Z,66.0
2017-10-25T10:55:23.119Z,66.7
2017-10-25T10:56:24.518Z,68.0
2017-10-25T10:57:25.919Z,68.4
2017-10-25T10:58:27.324Z,69.3
2017-10-25T10:59:28.726Z,69.4
2017-10-25T11:00:30.133Z,69.3
2017-10-25T11:01:31.528Z,70.0
2017-10-25T11:02:32.931Z,70.6
2017-10-25T11:03:34.330Z,71.8
2017-10-25T11:04:35.732Z,72.0
2017-10-25T11:05:37.128Z,73.0
2017-10-25T11:06:38.532Z,72.7
2017-10-25T11:07:39.933Z,72.5
2017-10-25T11:08:41.332Z,73.6
2017-10-25T11:09:42.729Z,73.5
2017-10-25T11:10:44.129Z,73.2
2017-10-25T11:11:45.527Z,72.8
2017-10-25T11:12:46.926Z,73.6
2017-10-25T11:13:48.323Z,73.2
2017-10-25T11:14:49.728Z,74.2
2017-10-25T11:15:51.122Z,74.2
2017-10-25T11:16:52.516Z,74.2
2017-10-25T11:17:53.914Z,73.9
2017-10-25T11:18:55.313Z,74.3
2017-10-25T11:19:56.713Z,74.4
2017-10-25T11:20:58.065Z,74.9
2017-10-25T11:21:59.468Z,75.0
2017-10-25T11:23:00.864Z,75.8
2017-10-25T11:24:02.262Z,75.6
2017-10-25T11:25:03.658Z,75.5
2017-10-25T11:26:05.055Z,75.7
2017-10-25T11:27:06.452Z,76.3
2017-10-25T11:28:07.850Z,75.7
2017-10-25T11:29:09.248Z,75.3
2017-10-25T11:30:10.647Z,76.2
2017-10-25T11:31:12.044Z,75.6
2017-10-25T11:32:13.463Z,75.4
2017-10-25T11:33:14.843Z,74.7
2017-10-25T11:34:16.238Z,73.4
2017-10-25T11:35:17.637Z,74.5
2017-10-25T11:36:19.036Z,74.7
2017-10-25T11:37:20.435Z,74.2
2017-10-25T11:38:21.830Z,73.4
2017-10-25T11:39:23.228Z,74.3
2017-10-25T11:40:24.625Z,74.2
2017-10-25T11:41:26.024Z,74.6
2017-10-25T11:42:27.422Z,74.4
2017-10-25T11:43:28.821Z,74.2
2017-10-25T11:44:30.221Z,74.1
2017-10-25T11:45:31.620Z,73.1
2017-10-25T11:46:33.014Z,73.6
2017-10-25T11:47:34.419Z,73.2
2017-10-25T11:48:35.818Z,73.2
2017-10-25T11:49:37.222Z,73.8
2017-10-25T11:50:38.620Z,74.1
2017-10-25T11:51:40.027Z,74.7
2017-10-25T11:52:41.448Z,75.3
2017-10-25T11:53:42.842Z,74.9
2017-10-25T11:54:44.237Z,75.7
2017-10-25T11:55:45.633Z,76.2
2017-10-25T11:56:47.032Z,75.7
2017-10-25T11:57:48.430Z,75.1
2017-10-25T11:58:49.836Z,74.5
2017-10-25T11:59:51.229Z,75.0
2017-10-25T12:00:52.638Z,74.7
2017-10-25T12:01:54.033Z,74.6
2017-10-25T12:02:55.430Z,75.1
2017-10-25T12:03:56.822Z,75.4
2017-10-25T12:04:58.219Z,75.8
2017-10-25T12:05:59.617Z,75.8
2017-10-25T12:07:01.013Z,76.5
2017-10-25T12:08:02.408Z,76.3
2017-10-25T12:09:03.805Z,76.5
2017-10-25T12:10:05.203Z,77.4
2017-10-25T12:11:06.601Z,77.0
2017-10-25T12:12:07.999Z,76.4
2017-10-25T12:13:09.396Z,76.4
2017-10-25T12:14:10.790Z,76.5
2017-10-25T12:15:12.184Z,76.4
2017-10-25T12:16:13.581Z,76.4
2017-10-25T12:17:14.975Z,76.8
2017-10-25T12:18:16.374Z,76.4
2017-10-25T12:19:17.776Z,76.9
2017-10-25T12:20:19.173Z,76.9
2017-10-25T12:21:20.565Z,77.4
2017-10-25T12:22:21.963Z,76.8
2017-10-25T12:23:23.358Z,77.5
2017-10-25T12:24:24.754Z,77.3
2017-10-25T12:25:26.153Z,77.5
2017-10-25T12:26:27.553Z,77.7
2017-10-25T12:27:28.955Z,78.2
2017-10-25T12:28:30.349Z,77.0
2017-10-25T12:29:31.745Z,78.0
2017-10-25T12:30:33.140Z,77.6
2017-10-25T12:31:34.537Z,77.8
2017-10-25T12:32:35.934Z,77.5
2017-10-25T12:33:37.331Z,77.6
2017-10-25T12:34:38.737Z,77.8
2017-10-25T12:35:40.124Z,77.8
2017-10-25T12:36:41.520Z,78.1
2017-10-25T12:37:42.915Z,78.1
2017-10-25T12:38:44.314Z,78.3
2017-10-25T12:39:45.707Z,78.1
2017-10-25T12:40:47.106Z,77.8
2017-10-25T12:41:48.509Z,78.1
2017-10-25T12:42:49.902Z,77.9
2017-10-25T12:43:51.299Z,78.1
2017-10-25T12:44:52.692Z,78.6
2017-10-25T12:45:54.086Z,78.3
2017-10-25T12:46:55.481Z,78.3
2017-10-25T12:47:56.880Z,79.0
2017-10-25T12:48:58.277Z,79.1
2017-10-25T12:49:59.673Z,79.0
2017-10-25T12:51:01.076Z,80.0
2017-10-25T12:52:02.467Z,80.0
2017-10-25T12:53:03.869Z,79.3
2017-10-25T12:54:05.265Z,79.7
2017-10-25T12:55:06.667Z,79.4
2017-10-25T12:56:08.063Z,79.4
2017-10-25T12:57:09.462Z,79.5
2017-10-25T12:58:10.860Z,79.1
2017-10-25T12:59:12.250Z,78.6
2017-10-25T13:00:13.651Z,78.2
2017-10-25T13:01:15.051Z,77.2
2017-10-25T13:02:16.453Z,76.8
2017-10-25T13:03:17.853Z,76.7
2017-10-25T13:04:19.244Z,76.7
2017-10-25T13:05:20.643Z,76.9
2017-10-25T13:06:22.041Z,76.7
2017-10-25T13:07:23.438Z,76.4
2017-10-25T13:08:24.835Z,76.5
2017-10-25T13:09:26.233Z,76.5
2017-10-25T13:10:27.631Z,76.3
2017-10-25T13:11:29.025Z,77.3
2017-10-25T13:12:30.427Z,76.4
2017-10-25T13:13:31.825Z,76.3
2017-10-25T13:14:33.223Z,76.8
2017-10-25T13:15:34.623Z,77.4
2017-10-25T13:16:36.019Z,77.8
2017-10-25T13:17:37.421Z,78.3
2017-10-25T13:18:38.813Z,79.1
2017-10-25T13:19:40.219Z,78.4
2017-10-25T13:20:41.607Z,78.4
2017-10-25T13:21:43.005Z,78.7
2017-10-25T13:22:44.402Z,79.1
2017-10-25T13:23:45.802Z,79.2
2017-10-25T13:24:47.200Z,78.7
2017-10-25T13:25:48.591Z,78.9
2017-10-25T13:26:49.995Z,79.1
2017-10-25T13:27:51.380Z,79.3
2017-10-25T13:28:52.777Z,79.6
2017-10-25T13:29:54.174Z,79.7
2017-10-25T13:30:55.565Z,80.1
2017-10-25T13:31:56.966Z,80.3
2017-10-25T13:32:58.358Z,80.4
2017-10-25T13:33:59.754Z,80.2
2017-10-25T13:35:01.149Z,80.4
2017-10-25T13:36:02.541Z,80.8
2017-10-25T13:37:03.935Z,80.7
2017-10-25T13:38:05.333Z,81.3
2017-10-25T13:39:06.730Z,80.8
2017-10-25T13:40:08.123Z,81.2
2017-10-25T13:41:09.523Z,81.4
2017-10-25T13:42:10.917Z,81.2
2017-10-25T13:43:12.326Z,81.5
2017-10-25T13:44:13.716Z,80.4
2017-10-25T13:45:15.112Z,80.3
2017-10-25T13:46:16.509Z,80.7